createdAt,value
2023-05-07T00:01:15.281Z,2.25
2023-05-07T00:03:42.960Z,1.90
2023-05-07T00:06:09.811Z,2.00
2023-05-07T00:08:36.438Z,2.45
2023-05-07T00:11:03.239Z,2.13
2023-05-07T00:13:31.683Z,2.38
2023-05-07T00:15:58.401Z,2.10
2023-05-07T00:18:25.035Z,2.10
2023-05-07T00:20:51.890Z,2.00
2023-05-07T00:23:18.541Z,2.10
2023-05-07T00:25:45.121Z,2.45
2023-05-07T00:28:11.716Z,2.60
2023-05-07T00:30:38.575Z,2.13
2023-05-07T00:33:05.386Z,1.83
2023-05-07T00:35:32.044Z,2.30
2023-05-07T00:37:58.945Z,2.47
2023-05-07T00:40:25.651Z,2.05
2023-05-07T00:42:57.592Z,2.22
2023-05-07T00:45:28.259Z,2.22
2023-05-07T00:48:00.364Z,2.25
2023-05-07T00:50:28.478Z,2.03
2023-05-07T00:52:55.836Z,2.40
2023-05-07T00:55:24.041Z,1.90
2023-05-07T00:57:51.783Z,2.00
2023-05-07T01:00:18.881Z,2.30
2023-05-07T01:02:45.552Z,2.30
2023-05-07T01:05:15.232Z,2.08
2023-05-07T01:07:43.420Z,2.40
2023-05-07T01:10:11.340Z,2.30
2023-05-07T01:12:40.547Z,2.20
2023-05-07T01:15:08.801Z,2.10
2023-05-07T01:17:41.038Z,2.50
2023-05-07T01:20:09.406Z,1.95
2023-05-07T01:22:37.778Z,2.33
2023-05-07T01:25:08.995Z,2.30
2023-05-07T01:27:37.468Z,2.17
2023-05-07T01:30:05.594Z,2.33
2023-05-07T01:32:32.189Z,2.40
2023-05-07T01:35:00.798Z,2.20
2023-05-07T01:37:27.801Z,2.15
2023-05-07T01:39:55.149Z,1.92
2023-05-07T01:42:22.858Z,2.15
2023-05-07T01:44:49.502Z,2.67
2023-05-07T01:47:16.990Z,2.33
2023-05-07T01:49:43.940Z,2.67
2023-05-07T01:52:12.511Z,2.90
2023-05-07T01:54:39.179Z,2.70
2023-05-07T01:57:06.055Z,3.05
2023-05-07T01:59:32.596Z,2.90
2023-05-07T02:01:59.224Z,2.50
2023-05-07T02:04:25.951Z,2.75
2023-05-07T02:06:53.595Z,2.80
2023-05-07T02:09:20.804Z,2.60
2023-05-07T02:11:47.340Z,2.60
2023-05-07T02:14:13.896Z,3.03
2023-05-07T02:16:40.570Z,3.15
2023-05-07T02:19:07.149Z,2.92
2023-05-07T02:21:33.699Z,3.28
2023-05-07T02:24:00.258Z,2.83
2023-05-07T02:26:26.837Z,3.40
2023-05-07T02:28:54.596Z,3.53
2023-05-07T02:31:21.248Z,3.75
2023-05-07T02:33:47.882Z,3.63
2023-05-07T02:36:14.401Z,3.35
2023-05-07T02:38:40.930Z,4.40
2023-05-07T02:41:07.553Z,3.70
2023-05-07T02:43:34.154Z,4.25
2023-05-07T02:46:08.284Z,4.25
2023-05-07T02:48:35.378Z,3.65
2023-05-07T02:51:02.941Z,3.63
2023-05-07T02:53:30.324Z,3.35
2023-05-07T02:55:58.154Z,3.22
2023-05-07T02:58:25.246Z,3.60
2023-05-07T03:00:52.341Z,3.10
2023-05-07T03:03:19.157Z,3.53
2023-05-07T03:05:45.691Z,3.30
2023-05-07T03:08:12.277Z,3.80
2023-05-07T03:10:38.957Z,5.65
2023-05-07T03:13:05.931Z,5.03
2023-05-07T03:15:32.470Z,9.52
2023-05-07T03:17:59.082Z,9.63
2023-05-07T03:20:25.850Z,8.13
2023-05-07T03:22:52.455Z,6.32
2023-05-07T03:25:19.083Z,6.13
2023-05-07T03:27:45.715Z,5.57
2023-05-07T03:30:13.253Z,5.57
2023-05-07T03:32:40.129Z,5.32
2023-05-07T03:35:07.021Z,5.63
2023-05-07T03:37:33.606Z,4.90
2023-05-07T03:40:00.784Z,4.55
2023-05-07T03:42:27.323Z,5.90
2023-05-07T03:44:53.822Z,4.78
2023-05-07T03:47:20.478Z,4.53
2023-05-07T03:49:47.114Z,4.28
2023-05-07T03:52:13.715Z,4.25
2023-05-07T03:54:40.552Z,3.63
2023-05-07T03:57:07.174Z,3.60
2023-05-07T03:59:33.803Z,3.72
2023-05-07T04:02:02.256Z,4.53
2023-05-07T04:04:33.678Z,4.38
2023-05-07T04:07:01.375Z,4.83
2023-05-07T04:09:28.013Z,5.32
2023-05-07T04:11:54.595Z,4.78
2023-05-07T04:14:21.190Z,4.40
2023-05-07T04:16:47.782Z,3.90
2023-05-07T04:19:14.409Z,4.20
2023-05-07T04:21:41.070Z,4.20
2023-05-07T04:24:07.987Z,4.40
2023-05-07T04:26:34.872Z,4.25
2023-05-07T04:29:01.506Z,3.70
2023-05-07T04:31:28.160Z,4.40
2023-05-07T04:33:54.697Z,4.10
2023-05-07T04:36:21.203Z,3.97
2023-05-07T04:38:47.720Z,3.70
2023-05-07T04:41:14.303Z,4.38
2023-05-07T04:43:41.065Z,4.20
2023-05-07T04:46:07.626Z,5.43
2023-05-07T04:48:34.372Z,3.78
2023-05-07T04:51:00.963Z,3.70
2023-05-07T04:53:27.535Z,3.70
2023-05-07T04:55:58.235Z,4.00
2023-05-07T04:58:25.222Z,3.60
2023-05-07T05:00:51.894Z,3.65
2023-05-07T05:03:18.586Z,3.83
2023-05-07T05:05:45.527Z,4.45
2023-05-07T05:08:12.110Z,4.28
2023-05-07T05:10:38.678Z,4.32
2023-05-07T05:13:05.288Z,3.97
2023-05-07T05:15:33.767Z,4.10
2023-05-07T05:18:00.638Z,4.88
2023-05-07T05:20:27.230Z,4.68
2023-05-07T05:22:53.770Z,3.60
2023-05-07T05:25:20.411Z,4.43
2023-05-07T05:27:46.956Z,4.28
2023-05-07T05:30:14.089Z,4.32
2023-05-07T05:32:40.861Z,4.13
2023-05-07T05:35:07.972Z,4.82
2023-05-07T05:37:34.963Z,5.15
2023-05-07T05:40:01.569Z,4.00
2023-05-07T05:42:28.145Z,5.00
2023-05-07T05:44:54.663Z,4.20
2023-05-07T05:47:21.267Z,4.68
2023-05-07T05:49:47.826Z,4.00
2023-05-07T05:52:15.178Z,4.53
2023-05-07T05:54:41.699Z,3.88
2023-05-07T05:57:08.299Z,3.85
2023-05-07T05:59:34.952Z,4.38
2023-05-07T06:02:01.543Z,3.80
2023-05-07T06:04:28.171Z,4.50
2023-05-07T06:06:55.228Z,4.18
2023-05-07T06:09:21.931Z,4.30
2023-05-07T06:11:48.466Z,3.70
2023-05-07T06:14:15.326Z,4.07
2023-05-07T06:16:42.859Z,3.65
2023-05-07T06:19:09.476Z,4.10
2023-05-07T06:21:36.031Z,4.93
2023-05-07T06:24:02.742Z,3.80
2023-05-07T06:26:29.250Z,3.78
2023-05-07T06:28:55.788Z,4.28
2023-05-07T06:31:22.484Z,5.07
2023-05-07T06:33:49.981Z,4.63
2023-05-07T06:36:16.586Z,4.88
2023-05-07T06:38:43.076Z,4.72
2023-05-07T06:41:09.632Z,4.95
2023-05-07T06:43:36.933Z,4.82
2023-05-07T06:46:03.804Z,4.38
2023-05-07T06:48:30.376Z,4.80
2023-05-07T06:50:58.425Z,5.30
2023-05-07T06:53:25.610Z,5.45
2023-05-07T06:55:52.988Z,5.72
2023-05-07T06:58:19.479Z,5.30
2023-05-07T07:00:46.736Z,5.28
2023-05-07T07:03:13.473Z,4.30
2023-05-07T07:05:41.975Z,4.90
2023-05-07T07:08:08.558Z,4.63
2023-05-07T07:10:35.236Z,4.55
2023-05-07T07:13:01.805Z,4.60
2023-05-07T07:15:28.413Z,4.25
2023-05-07T07:17:54.974Z,4.65
2023-05-07T07:20:21.568Z,4.68
2023-05-07T07:22:48.126Z,3.65
2023-05-07T07:25:14.691Z,3.78
2023-05-07T07:27:41.210Z,3.30
2023-05-07T07:30:08.973Z,3.17
2023-05-07T07:32:36.059Z,2.47
2023-05-07T07:35:03.127Z,2.40
2023-05-07T07:37:30.594Z,2.70
2023-05-07T07:39:57.206Z,2.70
2023-05-07T07:42:23.807Z,3.25
2023-05-07T07:44:50.583Z,3.10
2023-05-07T07:47:17.200Z,2.70
2023-05-07T07:49:43.717Z,3.38
2023-05-07T07:52:10.449Z,3.10
2023-05-07T07:54:36.993Z,2.80
2023-05-07T07:57:03.567Z,2.42
2023-05-07T07:59:30.220Z,2.70
2023-05-07T08:01:57.975Z,2.90
2023-05-07T08:04:24.704Z,2.95
2023-05-07T08:06:51.337Z,5.03
2023-05-07T08:09:17.946Z,3.42
2023-05-07T08:11:44.546Z,3.28
2023-05-07T08:14:11.097Z,3.40
2023-05-07T08:16:37.737Z,2.80
2023-05-07T08:19:04.387Z,3.50
2023-05-07T08:21:33.113Z,2.92
2023-05-07T08:24:00.932Z,2.78
2023-05-07T08:26:27.487Z,3.00
2023-05-07T08:28:54.304Z,2.72
2023-05-07T08:31:21.162Z,2.65
2023-05-07T08:33:48.072Z,2.90
2023-05-07T08:36:14.636Z,2.42
2023-05-07T08:38:43.631Z,2.90
2023-05-07T08:41:11.685Z,2.75
2023-05-07T08:43:41.000Z,2.63
2023-05-07T08:46:10.902Z,2.30
2023-05-07T08:48:38.281Z,2.57
2023-05-07T08:51:05.056Z,2.85
2023-05-07T08:53:32.225Z,2.78
2023-05-07T08:55:59.819Z,2.35
2023-05-07T08:58:26.436Z,2.42
2023-05-07T09:00:54.870Z,2.70
2023-05-07T09:03:21.665Z,2.95
2023-05-07T09:05:48.237Z,3.25
2023-05-07T09:08:17.076Z,2.88
2023-05-07T09:10:43.705Z,3.13
2023-05-07T09:13:14.058Z,3.20
2023-05-07T09:15:40.694Z,2.80
2023-05-07T09:18:07.549Z,2.50
2023-05-07T09:20:34.167Z,3.70
2023-05-07T09:23:00.727Z,3.65
2023-05-07T09:25:32.415Z,3.15
2023-05-07T09:28:00.023Z,3.72
2023-05-07T09:30:33.370Z,3.10
2023-05-07T09:33:00.861Z,3.42
2023-05-07T09:35:28.497Z,2.88
2023-05-07T09:37:57.024Z,2.92
2023-05-07T09:40:26.039Z,3.03
2023-05-07T09:42:52.959Z,3.58
2023-05-07T09:45:29.699Z,3.75
2023-05-07T09:47:58.150Z,3.22
2023-05-07T09:50:30.197Z,2.83
2023-05-07T09:52:57.772Z,3.97
2023-05-07T09:55:24.977Z,3.50
2023-05-07T09:57:53.186Z,3.22
2023-05-07T10:00:22.237Z,4.15
2023-05-07T10:02:53.913Z,3.28
2023-05-07T10:05:23.977Z,3.60
2023-05-07T10:07:51.927Z,3.13
2023-05-07T10:10:18.704Z,3.03
2023-05-07T10:12:46.213Z,3.72
2023-05-07T10:15:13.854Z,3.80
2023-05-07T10:17:41.666Z,3.90
2023-05-07T10:20:09.321Z,3.58
2023-05-07T10:22:41.820Z,3.50
2023-05-07T10:25:18.704Z,3.88
2023-05-07T10:27:48.407Z,3.60
2023-05-07T10:30:44.420Z,3.75
2023-05-07T10:33:14.564Z,3.35
2023-05-07T10:35:43.846Z,3.58
2023-05-07T10:38:10.805Z,3.30
2023-05-07T10:40:37.697Z,4.20
2023-05-07T10:43:07.589Z,3.83
2023-05-07T10:45:36.007Z,3.58
2023-05-07T10:48:28.730Z,3.60
2023-05-07T10:51:20.853Z,3.17
2023-05-07T10:56:19.888Z,3.42
2023-05-07T10:58:46.502Z,3.28
2023-05-07T11:01:14.272Z,3.05
2023-05-07T11:04:16.715Z,3.10
2023-05-07T11:07:03.273Z,4.13
2023-05-07T11:09:52.842Z,3.65
2023-05-07T11:12:38.272Z,3.83
2023-05-07T11:15:09.420Z,3.05
2023-05-07T11:17:56.591Z,3.53
2023-05-07T11:20:49.916Z,4.03
2023-05-07T11:23:35.014Z,3.90
2023-05-07T11:26:09.488Z,3.58
2023-05-07T11:28:40.855Z,3.70
2023-05-07T11:31:08.169Z,4.10
2023-05-07T11:33:35.971Z,3.95
2023-05-07T11:36:06.354Z,4.63
2023-05-07T11:38:37.134Z,4.88
2023-05-07T11:43:33.610Z,4.15
2023-05-07T11:46:10.990Z,4.30
2023-05-07T11:48:37.941Z,3.80
2023-05-07T11:51:13.378Z,3.97
2023-05-07T11:53:44.026Z,3.92
2023-05-07T11:56:12.767Z,4.30
2023-05-07T11:58:40.306Z,4.05
2023-05-07T12:01:09.919Z,3.90
2023-05-07T12:03:43.392Z,4.45
2023-05-07T12:06:10.931Z,3.53
2023-05-07T12:08:39.041Z,4.00
2023-05-07T12:11:09.777Z,3.33
2023-05-07T12:16:06.810Z,3.55
2023-05-07T12:18:35.260Z,3.97
2023-05-07T12:21:02.196Z,11.27
2023-05-07T12:23:30.031Z,3.78
2023-05-07T12:25:56.864Z,3.63
2023-05-07T12:28:23.503Z,4.15
2023-05-07T12:30:52.706Z,4.22
2023-05-07T12:33:24.882Z,4.38
2023-05-07T12:35:51.426Z,3.80
2023-05-07T12:38:19.042Z,4.15
2023-05-07T12:40:48.276Z,3.90
2023-05-07T12:43:27.210Z,3.92
2023-05-07T12:46:00.306Z,3.30
2023-05-07T12:48:28.046Z,3.80
2023-05-07T12:50:55.557Z,3.45
2023-05-07T12:53:23.975Z,4.03
2023-05-07T12:55:52.390Z,3.60
2023-05-07T12:58:21.757Z,3.75
2023-05-07T13:00:49.805Z,4.25
2023-05-07T13:03:24.097Z,4.30
2023-05-07T13:05:52.271Z,4.40
2023-05-07T13:08:25.893Z,4.72
2023-05-07T13:10:53.363Z,4.50
2023-05-07T13:13:21.318Z,4.18
2023-05-07T13:15:49.157Z,4.22
2023-05-07T13:18:15.932Z,4.15
2023-05-07T13:20:42.672Z,3.70
2023-05-07T13:23:09.272Z,3.35
2023-05-07T13:25:37.081Z,3.88
2023-05-07T13:28:10.875Z,3.38
2023-05-07T13:30:38.052Z,3.25
2023-05-07T13:33:05.006Z,3.58
2023-05-07T13:35:31.676Z,3.60
2023-05-07T13:37:58.304Z,3.60
2023-05-07T13:40:25.257Z,3.33
2023-05-07T13:42:51.885Z,3.25
2023-05-07T13:45:21.486Z,3.38
2023-05-07T13:47:49.920Z,3.03
2023-05-07T13:50:16.917Z,3.58
2023-05-07T13:52:46.967Z,2.75
2023-05-07T13:55:13.764Z,3.50
2023-05-07T13:57:40.469Z,3.30
2023-05-07T14:00:07.660Z,3.30
2023-05-07T14:02:34.345Z,3.25
2023-05-07T14:05:01.206Z,4.10
2023-05-07T14:07:27.875Z,3.17
2023-05-07T14:09:54.827Z,2.70
2023-05-07T14:12:21.402Z,2.50
2023-05-07T14:14:47.979Z,2.97
2023-05-07T14:17:14.552Z,2.28
2023-05-07T14:19:41.171Z,2.55
2023-05-07T14:22:07.715Z,2.63
2023-05-07T14:24:38.506Z,2.97
2023-05-07T14:27:06.730Z,2.50
2023-05-07T14:29:33.498Z,2.60
2023-05-07T14:32:00.134Z,2.28
2023-05-07T14:34:26.657Z,2.13
2023-05-07T14:36:53.254Z,2.40
2023-05-07T14:39:19.830Z,2.00
2023-05-07T14:41:46.365Z,1.90
2023-05-07T14:44:12.912Z,2.30
2023-05-07T14:46:39.672Z,1.85
2023-05-07T14:49:07.671Z,2.85
2023-05-07T14:51:34.407Z,2.53
2023-05-07T14:54:02.244Z,2.45
2023-05-07T14:56:28.801Z,2.00
2023-05-07T14:58:55.419Z,3.22
2023-05-07T15:01:22.414Z,2.17
2023-05-07T15:03:49.161Z,2.55
2023-05-07T15:06:15.899Z,3.13
2023-05-07T15:08:42.462Z,2.53
2023-05-07T15:11:09.074Z,2.40
2023-05-07T15:13:35.674Z,2.28
2023-05-07T15:16:02.261Z,2.13
2023-05-07T15:18:28.862Z,2.42
2023-05-07T15:20:56.833Z,2.97
2023-05-07T15:23:23.500Z,2.35
2023-05-07T15:25:52.143Z,2.72
2023-05-07T15:28:19.614Z,2.80
2023-05-07T15:30:46.269Z,2.90
2023-05-07T15:33:13.020Z,3.30
2023-05-07T15:35:39.618Z,2.67
2023-05-07T15:38:06.429Z,3.03
2023-05-07T15:40:33.790Z,2.88
2023-05-07T15:43:01.059Z,3.08
2023-05-07T15:45:27.674Z,3.03
2023-05-07T15:47:54.320Z,2.50
2023-05-07T15:50:20.981Z,2.47
2023-05-07T15:52:47.560Z,2.90
2023-05-07T15:55:14.855Z,2.60
2023-05-07T15:57:41.465Z,2.80
2023-05-07T16:00:10.005Z,2.83
2023-05-07T16:02:37.366Z,2.75
2023-05-07T16:05:04.242Z,3.03
2023-05-07T16:07:30.930Z,3.42
2023-05-07T16:09:57.532Z,3.15
2023-05-07T16:12:24.074Z,2.80
2023-05-07T16:14:51.812Z,2.67
2023-05-07T16:17:18.421Z,3.60
2023-05-07T16:19:45.056Z,3.20
2023-05-07T16:22:13.165Z,3.00
2023-05-07T16:24:40.851Z,3.58
2023-05-07T16:27:07.449Z,3.30
2023-05-07T16:29:34.002Z,3.50
2023-05-07T16:32:00.592Z,3.72
2023-05-07T16:34:27.195Z,3.67
2023-05-07T16:36:53.754Z,3.92
2023-05-07T16:39:23.099Z,4.35
2023-05-07T16:41:50.813Z,4.82
2023-05-07T16:44:17.953Z,4.63
2023-05-07T16:46:44.555Z,5.45
2023-05-07T16:49:11.284Z,7.28
2023-05-07T16:51:38.413Z,5.55
2023-05-07T16:54:05.051Z,5.20
2023-05-07T16:56:31.946Z,4.57
2023-05-07T16:58:58.472Z,4.57
2023-05-07T17:01:25.094Z,4.22
2023-05-07T17:03:51.715Z,4.25
2023-05-07T17:06:18.378Z,4.20
2023-05-07T17:08:45.007Z,4.00
2023-05-07T17:11:12.691Z,4.55
2023-05-07T17:13:40.915Z,3.58
2023-05-07T17:16:07.467Z,4.63
2023-05-07T17:18:34.284Z,3.58
2023-05-07T17:21:00.856Z,4.40
2023-05-07T17:23:27.814Z,4.20
2023-05-07T17:25:54.365Z,4.22
2023-05-07T17:28:20.909Z,5.00
2023-05-07T17:30:48.510Z,4.28
2023-05-07T17:33:21.483Z,4.32
2023-05-07T17:35:52.832Z,4.45
2023-05-07T17:38:19.433Z,3.95
2023-05-07T17:40:46.136Z,4.25
2023-05-07T17:43:12.707Z,3.80
2023-05-07T17:45:39.329Z,3.70
2023-05-07T17:48:06.061Z,4.13
2023-05-07T17:50:32.944Z,3.25
2023-05-07T17:52:59.550Z,3.35
2023-05-07T17:55:26.408Z,2.10
2023-05-07T17:57:52.931Z,2.33
2023-05-07T18:00:19.755Z,2.92
2023-05-07T18:02:46.472Z,2.13
2023-05-07T18:05:13.192Z,2.75
2023-05-07T18:07:39.861Z,2.47
2023-05-07T18:10:06.876Z,2.88
2023-05-07T18:12:33.498Z,2.58
2023-05-07T18:15:00.040Z,3.00
2023-05-07T18:17:27.690Z,2.78
2023-05-07T18:19:55.306Z,3.08
2023-05-07T18:22:22.364Z,2.80
2023-05-07T18:24:49.633Z,2.72
2023-05-07T18:27:16.265Z,2.60
2023-05-07T18:29:42.853Z,3.15
2023-05-07T18:32:09.485Z,2.33
2023-05-07T18:34:36.233Z,2.60
2023-05-07T18:37:02.866Z,2.30
2023-05-07T18:39:31.077Z,2.80
2023-05-07T18:41:58.072Z,2.70
2023-05-07T18:44:25.079Z,2.90
2023-05-07T18:46:51.728Z,2.88
2023-05-07T18:49:18.311Z,3.10
2023-05-07T18:51:45.558Z,3.22
2023-05-07T18:54:12.159Z,2.85
2023-05-07T18:56:38.697Z,2.70
2023-05-07T18:59:05.238Z,2.25
2023-05-07T19:01:31.829Z,2.55
2023-05-07T19:03:58.441Z,2.47
2023-05-07T19:06:26.145Z,2.17
2023-05-07T19:08:52.792Z,2.92
2023-05-07T19:11:19.328Z,3.20
2023-05-07T19:13:45.902Z,3.10
2023-05-07T19:16:13.821Z,2.05
2023-05-07T19:18:41.457Z,2.20
2023-05-07T19:21:08.458Z,2.40
2023-05-07T19:23:41.411Z,1.90
2023-05-07T19:26:10.025Z,1.80
2023-05-07T19:28:39.106Z,2.08
2023-05-07T19:31:07.003Z,2.38
2023-05-07T19:33:33.677Z,1.70
2023-05-07T19:36:00.850Z,1.45
2023-05-07T19:38:28.229Z,1.67
2023-05-07T19:40:55.069Z,1.58
2023-05-07T19:43:21.833Z,1.52
2023-05-07T19:45:49.852Z,1.65
2023-05-07T19:48:16.431Z,1.63
2023-05-07T19:50:43.081Z,1.50
2023-05-07T19:53:09.804Z,1.27
2023-05-07T19:55:36.677Z,1.20
2023-05-07T19:58:03.341Z,1.45
2023-05-07T20:00:32.540Z,1.40
2023-05-07T20:02:59.449Z,2.03
2023-05-07T20:05:27.901Z,1.63
2023-05-07T20:07:57.283Z,1.88
2023-05-07T20:10:23.920Z,1.45
2023-05-07T20:12:50.798Z,1.40
2023-05-07T20:15:17.474Z,1.10
2023-05-07T20:17:44.315Z,0.90
2023-05-07T20:20:11.543Z,1.35
2023-05-07T20:22:38.262Z,0.90
2023-05-07T20:25:06.221Z,0.90
2023-05-07T20:27:34.522Z,0.90
2023-05-07T20:30:01.602Z,1.05
2023-05-07T20:32:28.364Z,1.00
2023-05-07T20:34:54.955Z,1.73
2023-05-07T20:37:22.288Z,1.00
2023-05-07T20:39:48.933Z,1.20
2023-05-07T20:42:15.520Z,1.02
2023-05-07T20:44:42.096Z,0.82
2023-05-07T20:47:08.843Z,0.93
2023-05-07T20:49:35.853Z,0.90
2023-05-07T20:52:02.518Z,0.93
2023-05-07T20:54:29.234Z,0.95
2023-05-07T20:56:57.244Z,1.20
2023-05-07T20:59:24.212Z,1.05
2023-05-07T21:01:51.264Z,0.90
2023-05-07T21:04:17.890Z,0.73
2023-05-07T21:06:44.674Z,1.00
2023-05-07T21:09:11.358Z,0.77
2023-05-07T21:11:37.933Z,0.80
2023-05-07T21:14:04.520Z,0.85
2023-05-07T21:16:31.086Z,1.13
2023-05-07T21:18:57.717Z,1.15
2023-05-07T21:21:24.296Z,1.27
2023-05-07T21:23:50.870Z,0.90
2023-05-07T21:26:18.919Z,0.82
2023-05-07T21:28:45.775Z,1.30
2023-05-07T21:31:12.905Z,1.40
2023-05-07T21:33:39.717Z,1.27
2023-05-07T21:36:06.980Z,0.80
2023-05-07T21:38:33.528Z,0.90
2023-05-07T21:41:00.182Z,1.65
2023-05-07T21:43:26.717Z,1.00
2023-05-07T21:45:53.287Z,1.05
2023-05-07T21:48:22.002Z,0.90
2023-05-07T21:50:58.454Z,1.13
2023-05-07T21:53:25.373Z,1.02
2023-05-07T21:55:51.983Z,1.10
2023-05-07T21:58:18.507Z,0.80
2023-05-07T22:00:45.268Z,1.00
2023-05-07T22:03:12.014Z,1.42
2023-05-07T22:05:38.624Z,1.50
2023-05-07T22:08:05.312Z,1.75
2023-05-07T22:10:31.905Z,1.13
2023-05-07T22:12:58.492Z,1.10
2023-05-07T22:15:25.061Z,1.42
2023-05-07T22:17:51.659Z,1.05
2023-05-07T22:20:18.351Z,1.20
2023-05-07T22:22:51.852Z,0.75
2023-05-07T22:25:19.149Z,0.82
2023-05-07T22:27:45.960Z,0.98
2023-05-07T22:30:12.861Z,0.95
2023-05-07T22:32:41.437Z,1.00
2023-05-07T22:35:08.575Z,0.98
2023-05-07T22:37:35.151Z,1.10
2023-05-07T22:40:02.010Z,0.60
2023-05-07T22:42:28.606Z,1.30
2023-05-07T22:44:56.595Z,0.93
2023-05-07T22:47:23.438Z,0.90
2023-05-07T22:49:50.042Z,1.52
2023-05-07T22:52:17.132Z,0.88
2023-05-07T22:54:43.718Z,1.33
2023-05-07T22:57:10.307Z,1.00
2023-05-07T22:59:36.899Z,0.80
2023-05-07T23:02:04.794Z,0.90
2023-05-07T23:04:31.563Z,1.10
2023-05-07T23:06:58.090Z,1.08
2023-05-07T23:09:24.621Z,0.80
2023-05-07T23:11:51.157Z,0.80
2023-05-07T23:14:17.767Z,1.00
2023-05-07T23:16:44.388Z,0.90
2023-05-07T23:19:11.498Z,0.80
2023-05-07T23:21:38.046Z,0.77
2023-05-07T23:24:04.903Z,0.60
2023-05-07T23:26:31.867Z,0.85
2023-05-07T23:28:58.507Z,1.10
2023-05-07T23:31:25.140Z,0.77
2023-05-07T23:33:51.728Z,0.82
2023-05-07T23:36:18.381Z,1.05
2023-05-07T23:38:45.332Z,0.77
2023-05-07T23:41:11.907Z,0.70
2023-05-07T23:43:38.597Z,0.80
2023-05-07T23:46:05.217Z,1.08
2023-05-07T23:48:31.850Z,0.75
2023-05-07T23:50:58.376Z,0.82
2023-05-07T23:53:24.935Z,0.90
2023-05-07T23:55:51.548Z,0.80
2023-05-07T23:58:18.136Z,0.70
